createdAt,value
2022-08-05T00:01:48.597Z,20.51
2022-08-05T00:04:18.434Z,20.46
2022-08-05T00:06:51.663Z,20.49
2022-08-05T00:09:20.426Z,20.46
2022-08-05T00:11:55.904Z,20.45
2022-08-05T00:14:31.357Z,20.49
2022-08-05T00:17:03.059Z,20.44
2022-08-05T00:19:33.087Z,20.38
2022-08-05T00:22:04.329Z,20.45
2022-08-05T00:24:32.713Z,20.43
2022-08-05T00:27:04.469Z,20.35
2022-08-05T00:29:39.073Z,20.29
2022-08-05T00:32:15.509Z,20.27
2022-08-05T00:35:03.842Z,20.23
2022-08-05T00:37:53.376Z,20.27
2022-08-05T00:40:27.235Z,20.25
2022-08-05T00:42:56.685Z,20.20
2022-08-05T00:45:42.930Z,20.32
2022-08-05T00:48:13.345Z,20.36
2022-08-05T00:50:44.340Z,20.46
2022-08-05T00:54:00.943Z,20.30
2022-08-05T00:56:13.653Z,20.38
2022-08-05T00:58:46.122Z,20.32
2022-08-05T01:01:42.164Z,20.25
2022-08-05T01:04:14.275Z,20.25
2022-08-05T01:06:48.546Z,20.14
2022-08-05T01:09:20.248Z,20.01
2022-08-05T01:11:50.544Z,20.00
2022-08-05T01:14:27.940Z,19.94
2022-08-05T01:17:05.498Z,20.02
2022-08-05T01:20:01.023Z,19.94
2022-08-05T01:22:47.062Z,19.89
2022-08-05T01:25:42.840Z,19.73
2022-08-05T01:28:29.366Z,19.74
2022-08-05T01:31:03.243Z,19.76
2022-08-05T01:33:35.893Z,19.81
2022-08-05T01:36:16.084Z,19.73
2022-08-05T01:38:46.054Z,19.67
2022-08-05T01:41:21.651Z,19.66
2022-08-05T01:43:52.756Z,19.65
2022-08-05T01:46:42.625Z,19.65
2022-08-05T01:49:23.877Z,19.57
2022-08-05T01:51:59.614Z,19.51
2022-08-05T01:54:33.754Z,19.50
2022-08-05T02:03:58.974Z,19.36
2022-08-05T02:06:38.558Z,19.35
2022-08-05T02:09:09.990Z,19.26
2022-08-05T02:11:56.876Z,19.14
2022-08-05T02:20:38.949Z,19.11
2022-08-05T02:23:15.369Z,19.15
2022-08-05T02:25:52.713Z,19.11
2022-08-05T02:28:31.250Z,19.05
2022-08-05T02:31:28.365Z,19.02
2022-08-05T02:34:00.275Z,18.98
2022-08-05T02:36:31.404Z,18.95
2022-08-05T02:39:01.886Z,18.91
2022-08-05T02:41:43.370Z,18.99
2022-08-05T02:44:19.383Z,19.01
2022-08-05T02:46:58.498Z,18.91
2022-08-05T02:49:35.861Z,18.91
2022-08-05T02:52:08.605Z,18.84
2022-08-05T02:54:41.336Z,18.82
2022-08-05T02:58:10.220Z,18.82
2022-08-05T03:00:00.487Z,18.72
2022-08-05T03:02:31.185Z,18.72
2022-08-05T03:05:01.396Z,18.74
2022-08-05T03:08:01.649Z,18.73
2022-08-05T03:10:24.374Z,18.66
2022-08-05T03:12:53.763Z,18.68
2022-08-05T03:15:23.605Z,18.53
2022-08-05T03:17:54.275Z,18.51
2022-08-05T03:20:25.345Z,18.49
2022-08-05T03:22:57.164Z,18.46
2022-08-05T03:25:32.402Z,18.49
2022-08-05T03:28:15.014Z,18.47
2022-08-05T03:30:48.460Z,18.44
2022-08-05T03:33:17.988Z,18.38
2022-08-05T03:35:48.415Z,18.34
2022-08-05T03:38:32.715Z,18.32
2022-08-05T03:41:08.445Z,18.33
2022-08-05T03:44:09.948Z,18.29
2022-08-05T03:46:29.672Z,18.32
2022-08-05T03:48:59.204Z,18.27
2022-08-05T03:52:35.246Z,18.31
2022-08-05T03:56:00.723Z,18.31
2022-08-05T03:57:15.952Z,18.36
2022-08-05T03:59:54.875Z,18.38
2022-08-05T04:02:37.565Z,18.45
2022-08-05T04:05:09.948Z,18.39
2022-08-05T04:07:57.760Z,18.32
2022-08-05T04:10:27.809Z,18.29
2022-08-05T04:12:59.031Z,18.43
2022-08-05T04:15:33.286Z,18.47
2022-08-05T04:18:06.696Z,18.57
2022-08-05T04:20:35.519Z,18.61
2022-08-05T04:23:05.122Z,18.71
2022-08-05T04:25:56.912Z,18.70
2022-08-05T04:28:30.617Z,18.82
2022-08-05T04:31:01.147Z,18.95
2022-08-05T04:33:54.525Z,19.03
2022-08-05T04:36:49.370Z,19.04
2022-08-05T04:39:08.174Z,19.02
2022-08-05T04:41:37.649Z,19.16
2022-08-05T04:44:08.920Z,19.21
2022-08-05T04:46:38.118Z,19.28
2022-08-05T04:49:14.432Z,19.46
2022-08-05T04:51:42.979Z,19.47
2022-08-05T04:54:14.867Z,19.63
2022-08-05T04:56:43.635Z,19.75
2022-08-05T04:59:21.696Z,19.83
2022-08-05T05:02:08.032Z,20.03
2022-08-05T05:04:47.804Z,20.18
2022-08-05T05:07:29.196Z,20.27
2022-08-05T05:09:59.007Z,20.38
2022-08-05T05:12:30.513Z,20.58
2022-08-05T05:14:58.691Z,20.74
2022-08-05T05:17:55.578Z,20.91
2022-08-05T05:20:15.635Z,21.14
2022-08-05T05:22:48.642Z,21.39
2022-08-05T05:25:18.033Z,21.63
2022-08-05T05:27:53.659Z,21.74
2022-08-05T05:30:29.077Z,21.92
2022-08-05T05:33:00.622Z,22.07
2022-08-05T05:35:37.623Z,22.12
2022-08-05T05:38:09.369Z,22.31
2022-08-05T05:40:49.708Z,22.53
2022-08-05T05:43:22.302Z,22.46
2022-08-05T05:46:12.261Z,22.46
2022-08-05T05:48:44.746Z,22.11
2022-08-05T05:51:20.854Z,22.06
2022-08-05T05:53:57.942Z,22.14
2022-08-05T05:56:33.234Z,22.09
2022-08-05T05:59:05.692Z,21.94
2022-08-05T06:01:37.959Z,22.32
2022-08-05T06:04:08.563Z,22.46
2022-08-05T06:06:41.753Z,22.58
2022-08-05T06:09:17.322Z,22.77
2022-08-05T06:12:00.012Z,22.97
2022-08-05T06:14:30.523Z,22.90
2022-08-05T06:16:58.808Z,22.83
2022-08-05T06:19:34.745Z,22.87
2022-08-05T06:22:03.900Z,23.00
2022-08-05T06:24:32.082Z,23.15
2022-08-05T06:27:01.549Z,23.40
2022-08-05T06:29:46.326Z,23.76
2022-08-05T06:32:25.190Z,23.91
2022-08-05T06:34:56.225Z,24.07
2022-08-05T06:37:56.014Z,23.86
2022-08-05T06:40:20.750Z,24.01
2022-08-05T06:42:51.569Z,23.99
2022-08-05T06:45:44.908Z,24.13
2022-08-05T06:48:36.459Z,24.45
2022-08-05T06:50:57.563Z,24.70
2022-08-05T06:53:28.377Z,25.02
2022-08-05T06:55:57.383Z,24.93
2022-08-05T06:58:35.094Z,24.82
2022-08-05T07:01:06.868Z,24.97
2022-08-05T07:03:35.295Z,25.37
2022-08-05T07:06:06.020Z,25.86
2022-08-05T07:08:42.255Z,26.37
2022-08-05T07:11:15.054Z,26.69
2022-08-05T07:14:02.951Z,27.14
2022-08-05T07:18:00.013Z,27.64
2022-08-05T07:22:29.172Z,28.13
2022-08-05T07:24:59.640Z,28.18
2022-08-05T07:27:58.852Z,28.08
2022-08-05T07:30:38.902Z,27.90
2022-08-05T07:33:10.383Z,28.03
2022-08-05T07:36:01.996Z,27.85
2022-08-05T07:38:34.969Z,27.88
2022-08-05T07:41:35.092Z,27.55
2022-08-05T07:44:01.367Z,27.66
2022-08-05T07:46:32.021Z,27.82
2022-08-05T07:49:05.790Z,28.20
2022-08-05T07:51:40.577Z,28.31
2022-08-05T07:54:18.737Z,28.43
2022-08-05T07:57:13.312Z,28.70
2022-08-05T07:59:38.791Z,28.84
2022-08-05T08:02:17.120Z,28.72
2022-08-05T08:04:49.852Z,28.51
2022-08-05T08:07:22.855Z,28.28
2022-08-05T08:09:53.095Z,27.91
2022-08-05T08:12:35.549Z,27.70
2022-08-05T08:15:15.124Z,27.63
2022-08-05T08:17:52.435Z,27.68
2022-08-05T08:20:43.862Z,28.09
2022-08-05T08:23:11.615Z,28.33
2022-08-05T08:26:00.069Z,28.50
2022-08-05T08:28:36.239Z,28.64
2022-08-05T08:31:05.494Z,28.71
2022-08-05T08:33:38.203Z,28.70
2022-08-05T08:38:56.919Z,29.23
2022-08-05T08:41:50.885Z,29.14
2022-08-05T08:45:25.336Z,28.95
2022-08-05T08:47:47.747Z,28.89
2022-08-05T08:50:23.069Z,28.81
2022-08-05T08:52:51.838Z,28.60
2022-08-05T08:56:01.607Z,28.44
2022-08-05T08:58:13.018Z,28.39
2022-08-05T09:00:42.707Z,28.51
2022-08-05T09:03:11.844Z,28.67
2022-08-05T09:06:07.362Z,28.52
2022-08-05T09:08:33.550Z,28.75
2022-08-05T09:11:02.592Z,28.68
2022-08-05T09:13:31.910Z,28.94
2022-08-05T09:16:19.414Z,29.22
2022-08-05T09:18:48.863Z,29.15
2022-08-05T09:21:21.205Z,29.16
2022-08-05T09:24:10.225Z,29.28
2022-08-05T09:26:38.886Z,29.30
2022-08-05T09:29:19.068Z,29.49
2022-08-05T09:32:51.177Z,30.09
2022-08-05T09:34:52.060Z,30.29
2022-08-05T09:38:16.460Z,30.30
2022-08-05T09:40:30.891Z,30.34
2022-08-05T09:43:01.337Z,30.36
2022-08-05T09:46:06.322Z,30.02
2022-08-05T09:48:27.104Z,29.97
2022-08-05T09:51:15.219Z,29.98
2022-08-05T09:53:53.731Z,29.78
2022-08-05T09:56:27.152Z,29.53
2022-08-05T09:58:59.712Z,29.76
2022-08-05T10:01:32.324Z,29.80
2022-08-05T10:04:10.745Z,29.68
2022-08-05T10:06:40.660Z,29.54
2022-08-05T10:09:25.328Z,29.51
2022-08-05T10:11:56.680Z,29.54
2022-08-05T10:14:32.155Z,29.63
2022-08-05T10:17:37.324Z,29.71
2022-08-05T10:20:10.843Z,29.83
2022-08-05T10:22:43.132Z,29.65
2022-08-05T10:26:14.235Z,29.84
2022-08-05T10:28:46.290Z,29.57
2022-08-05T10:32:48.281Z,29.62
2022-08-05T10:34:07.211Z,29.72
2022-08-05T10:36:37.221Z,29.75
2022-08-05T10:39:11.868Z,29.85
2022-08-05T10:42:01.033Z,30.23
2022-08-05T10:44:34.567Z,30.38
2022-08-05T10:47:25.968Z,30.65
2022-08-05T10:50:31.748Z,30.29
2022-08-05T10:52:58.465Z,30.24
2022-08-05T10:55:27.973Z,30.36
2022-08-05T10:58:11.426Z,30.61
2022-08-05T11:00:47.671Z,30.54
2022-08-05T11:03:24.700Z,30.43
2022-08-05T11:06:15.866Z,30.39
2022-08-05T11:09:32.134Z,30.54
2022-08-05T11:12:45.316Z,30.65
2022-08-05T11:15:23.163Z,30.69
2022-08-05T11:17:58.705Z,30.64
2022-08-05T11:20:44.222Z,30.70
2022-08-05T11:23:33.422Z,30.72
2022-08-05T11:26:32.871Z,30.83
2022-08-05T11:32:26.056Z,30.93
2022-08-05T11:34:56.360Z,31.12
2022-08-05T11:38:28.187Z,31.15
2022-08-05T11:41:34.480Z,31.48
2022-08-05T11:44:05.153Z,31.74
2022-08-05T11:46:37.812Z,31.78
2022-08-05T11:49:26.020Z,31.78
2022-08-05T11:51:57.608Z,31.74
2022-08-05T11:54:33.847Z,31.88
2022-08-05T11:57:08.095Z,32.07
2022-08-05T11:59:52.213Z,31.87
2022-08-05T12:02:31.228Z,31.88
2022-08-05T12:05:07.374Z,31.67
2022-08-05T12:08:07.946Z,31.68
2022-08-05T12:10:43.710Z,31.97
2022-08-05T12:13:48.062Z,32.21
2022-08-05T12:16:15.028Z,32.30
2022-08-05T12:18:49.399Z,32.42
2022-08-05T12:21:23.973Z,32.57
2022-08-05T12:24:05.025Z,32.74
2022-08-05T12:26:34.696Z,32.93
2022-08-05T12:29:03.584Z,32.66
2022-08-05T12:31:45.878Z,32.81
2022-08-05T12:34:20.483Z,33.39
2022-08-05T12:36:50.478Z,33.24
2022-08-05T12:39:20.573Z,33.27
2022-08-05T12:41:49.013Z,33.72
2022-08-05T12:44:28.673Z,35.00
2022-08-05T12:47:02.951Z,37.32
2022-08-05T12:50:04.720Z,40.80
2022-08-05T12:52:39.562Z,39.45
2022-08-05T12:55:26.339Z,38.67
2022-08-05T12:58:39.188Z,40.78
2022-08-05T13:02:03.554Z,39.85
2022-08-05T13:03:43.047Z,43.04
2022-08-05T13:06:16.467Z,42.80
2022-08-05T13:08:51.454Z,43.27
2022-08-05T13:11:47.073Z,45.00
2022-08-05T13:14:14.760Z,43.56
2022-08-05T13:16:48.389Z,43.40
2022-08-05T13:19:17.581Z,43.35
2022-08-05T13:21:55.944Z,44.15
2022-08-05T13:24:36.606Z,44.98
2022-08-05T13:27:37.749Z,43.85
2022-08-05T13:30:35.400Z,43.00
2022-08-05T13:33:01.507Z,44.10
2022-08-05T13:35:47.691Z,45.44
2022-08-05T13:38:28.388Z,45.07
2022-08-05T13:41:02.721Z,44.78
2022-08-05T13:43:45.891Z,45.02
2022-08-05T13:50:06.848Z,46.46
2022-08-05T13:52:39.989Z,47.28
2022-08-05T13:55:10.433Z,46.09
2022-08-05T13:57:51.645Z,46.60
2022-08-05T14:00:27.615Z,45.16
2022-08-05T14:02:57.438Z,46.52
2022-08-05T14:05:29.242Z,47.51
2022-08-05T14:08:21.178Z,46.92
2022-08-05T14:10:59.817Z,42.33
2022-08-05T14:13:36.541Z,39.24
2022-08-05T14:16:11.482Z,39.66
2022-08-05T14:18:40.311Z,43.90
2022-08-05T14:22:08.728Z,47.50
2022-08-05T14:23:58.072Z,47.61
2022-08-05T14:26:38.675Z,47.04
2022-08-05T14:29:15.946Z,46.09
2022-08-05T14:32:03.673Z,44.34
2022-08-05T14:34:36.305Z,46.35
2022-08-05T14:37:05.514Z,47.19
2022-08-05T14:39:49.343Z,48.48
2022-08-05T14:42:23.457Z,49.69
2022-08-05T14:44:54.034Z,48.31
2022-08-05T14:48:03.644Z,47.67
2022-08-05T14:50:18.986Z,47.63
2022-08-05T14:52:57.792Z,42.74
2022-08-05T14:55:28.529Z,45.19
2022-08-05T14:58:10.819Z,47.23
2022-08-05T15:00:58.590Z,49.06
2022-08-05T15:03:33.278Z,48.52
2022-08-05T15:06:13.067Z,47.22
2022-08-05T15:08:59.046Z,46.96
2022-08-05T15:11:53.286Z,50.02
2022-08-05T15:14:34.821Z,49.36
2022-08-05T15:17:44.998Z,49.94
2022-08-05T15:20:00.454Z,49.73
2022-08-05T15:22:32.393Z,48.23
2022-08-05T15:25:14.098Z,47.95
2022-08-05T15:27:52.429Z,47.24
2022-08-05T15:30:23.394Z,46.90
2022-08-05T15:32:52.335Z,45.60
2022-08-05T15:35:22.454Z,43.55
2022-08-05T15:38:31.720Z,41.12
2022-08-05T15:41:00.212Z,39.68
2022-08-05T15:43:28.041Z,38.14
2022-08-05T15:46:00.565Z,37.71
2022-08-05T15:48:30.195Z,36.80
2022-08-05T15:51:05.699Z,35.83
2022-08-05T15:53:37.797Z,35.44
2022-08-05T15:56:13.031Z,35.12
2022-08-05T15:58:43.463Z,34.97
2022-08-05T16:01:16.405Z,34.89
2022-08-05T16:03:50.633Z,34.91
2022-08-05T16:06:22.913Z,34.43
2022-08-05T16:08:55.221Z,34.24
2022-08-05T16:11:40.029Z,33.94
2022-08-05T16:14:17.356Z,33.66
2022-08-05T16:16:47.464Z,33.56
2022-08-05T16:19:25.857Z,33.42
2022-08-05T16:22:06.687Z,33.32
2022-08-05T16:24:40.723Z,33.19
2022-08-05T16:27:19.515Z,33.15
2022-08-05T16:30:23.041Z,32.96
2022-08-05T16:32:55.434Z,32.70
2022-08-05T16:35:28.039Z,32.58
2022-08-05T16:38:13.677Z,32.47
2022-08-05T16:40:51.978Z,32.34
2022-08-05T16:43:24.585Z,32.26
2022-08-05T16:46:06.026Z,32.09
2022-08-05T16:48:38.439Z,31.96
2022-08-05T16:51:09.505Z,31.81
2022-08-05T16:54:05.090Z,31.68
2022-08-05T16:56:30.637Z,31.58
2022-08-05T16:58:59.236Z,31.61
2022-08-05T17:01:52.909Z,31.58
2022-08-05T17:04:18.998Z,31.58
2022-08-05T17:06:53.408Z,31.55
2022-08-05T17:09:23.641Z,31.46
2022-08-05T17:12:00.018Z,31.40
2022-08-05T17:14:36.876Z,31.22
2022-08-05T17:17:14.366Z,31.22
2022-08-05T17:19:46.245Z,31.22
2022-08-05T17:22:24.682Z,31.20
2022-08-05T17:24:57.494Z,31.10
2022-08-05T17:27:33.479Z,31.06
2022-08-05T17:30:03.879Z,31.06
2022-08-05T17:32:34.609Z,31.01
2022-08-05T17:35:04.301Z,30.99
2022-08-05T17:37:40.341Z,30.96
2022-08-05T17:40:14.505Z,30.92
2022-08-05T17:42:51.247Z,30.83
2022-08-05T17:45:22.605Z,30.81
2022-08-05T17:47:55.097Z,30.80
2022-08-05T17:50:29.005Z,30.61
2022-08-05T17:53:00.447Z,30.59
2022-08-05T17:55:38.332Z,30.51
2022-08-05T17:58:11.222Z,30.44
2022-08-05T18:00:45.274Z,30.27
2022-08-05T18:03:39.219Z,29.94
2022-08-05T18:06:11.863Z,29.46
2022-08-05T18:08:45.742Z,29.16
2022-08-05T18:11:24.218Z,28.98
2022-08-05T18:14:04.507Z,28.88
2022-08-05T18:16:35.427Z,28.70
2022-08-05T18:19:23.045Z,28.63
2022-08-05T18:22:07.396Z,28.47
2022-08-05T18:24:36.575Z,28.29
2022-08-05T18:27:12.482Z,28.19
2022-08-05T18:29:41.602Z,28.00
2022-08-05T18:32:12.910Z,28.00
2022-08-05T18:34:56.353Z,27.78
2022-08-05T18:37:34.547Z,27.66
2022-08-05T18:40:33.908Z,27.50
2022-08-05T18:42:59.680Z,27.31
2022-08-05T18:45:41.809Z,27.18
2022-08-05T18:48:11.933Z,27.10
2022-08-05T18:52:04.235Z,26.90
2022-08-05T18:53:52.135Z,26.81
2022-08-05T18:56:21.577Z,26.78
2022-08-05T18:58:54.805Z,26.62
2022-08-05T19:01:47.751Z,26.52
2022-08-05T19:04:24.200Z,26.43
2022-08-05T19:06:53.551Z,26.42
2022-08-05T19:09:22.326Z,26.35
2022-08-05T19:12:00.375Z,26.25
2022-08-05T19:14:44.910Z,26.22
2022-08-05T19:17:20.114Z,26.12
2022-08-05T19:19:50.516Z,26.15
2022-08-05T19:22:19.014Z,26.05
2022-08-05T19:24:54.204Z,25.98
2022-08-05T19:27:27.958Z,25.95
2022-08-05T19:30:02.799Z,25.97
2022-08-05T19:32:31.479Z,25.84
2022-08-05T19:35:06.419Z,25.81
2022-08-05T19:38:04.303Z,25.73
2022-08-05T19:40:24.466Z,25.67
2022-08-05T19:43:05.409Z,25.59
2022-08-05T19:45:37.258Z,25.54
2022-08-05T19:48:06.829Z,25.42
2022-08-05T19:50:43.074Z,25.41
2022-08-05T19:53:12.110Z,25.39
2022-08-05T19:56:14.125Z,25.36
2022-08-05T19:58:30.199Z,25.31
2022-08-05T20:01:00.254Z,25.29
2022-08-05T20:03:40.882Z,25.25
2022-08-05T20:06:15.234Z,25.25
2022-08-05T20:08:47.585Z,25.23
2022-08-05T20:11:18.051Z,25.19
2022-08-05T20:13:58.046Z,25.17
2022-08-05T20:16:37.954Z,25.12
2022-08-05T20:19:06.636Z,25.06
2022-08-05T20:21:37.817Z,24.95
2022-08-05T20:24:07.824Z,25.04
2022-08-05T20:26:40.265Z,25.01
2022-08-05T20:29:27.476Z,24.94
2022-08-05T20:31:59.751Z,24.93
2022-08-05T20:34:28.307Z,24.91
2022-08-05T20:36:56.787Z,24.84
2022-08-05T20:39:26.016Z,24.78
2022-08-05T20:42:05.716Z,24.81
2022-08-05T20:44:37.992Z,24.77
2022-08-05T20:47:08.646Z,24.72
2022-08-05T20:49:39.935Z,24.72
2022-08-05T20:52:10.669Z,24.66
2022-08-05T20:54:42.643Z,24.67
2022-08-05T20:57:14.242Z,24.66
2022-08-05T20:59:46.334Z,24.65
2022-08-05T21:02:39.307Z,24.61
2022-08-05T21:05:09.332Z,24.60
2022-08-05T21:07:50.753Z,24.56
2022-08-05T21:10:21.587Z,24.51
2022-08-05T21:12:55.490Z,24.51
2022-08-05T21:15:33.792Z,24.38
2022-08-05T21:18:04.074Z,24.45
2022-08-05T21:20:33.660Z,24.39
2022-08-05T21:23:03.134Z,24.31
2022-08-05T21:25:34.016Z,24.19
2022-08-05T21:28:06.664Z,24.09
2022-08-05T21:30:35.183Z,24.01
2022-08-05T21:33:07.272Z,23.90
2022-08-05T21:35:43.843Z,23.89
2022-08-05T21:38:27.225Z,23.85
2022-08-05T21:40:55.739Z,23.80
2022-08-05T21:43:25.067Z,23.64
2022-08-05T21:45:57.479Z,23.51
2022-08-05T21:48:31.774Z,23.39
2022-08-05T21:51:00.575Z,23.27
2022-08-05T21:53:29.097Z,23.12
2022-08-05T21:56:09.748Z,23.04
2022-08-05T21:58:56.837Z,22.99
2022-08-05T22:01:25.911Z,22.94
2022-08-05T22:03:56.174Z,22.84
2022-08-05T22:06:35.332Z,22.82
2022-08-05T22:09:13.874Z,22.68
2022-08-05T22:11:46.970Z,22.48
2022-08-05T22:14:33.083Z,22.54
2022-08-05T22:17:05.328Z,22.40
2022-08-05T22:20:03.221Z,22.36
2022-08-05T22:22:27.758Z,22.25
2022-08-05T22:25:21.277Z,22.12
2022-08-05T22:28:09.215Z,22.04
2022-08-05T22:30:44.131Z,21.98
2022-08-05T22:33:58.342Z,21.76
2022-08-05T22:36:16.607Z,21.33
2022-08-05T22:38:48.549Z,21.16
2022-08-05T22:42:05.445Z,21.02
2022-08-05T22:44:07.964Z,20.58
2022-08-05T22:46:39.736Z,20.37
2022-08-05T22:49:23.160Z,20.00
2022-08-05T22:52:06.018Z,19.79
2022-08-05T22:54:36.735Z,19.52
2022-08-05T22:57:05.807Z,19.09
2022-08-05T22:59:45.914Z,18.92
2022-08-05T23:02:29.067Z,18.76
2022-08-05T23:05:02.095Z,18.69
2022-08-05T23:07:48.270Z,18.57
2022-08-05T23:10:19.904Z,18.58
2022-08-05T23:12:51.500Z,18.53
2022-08-05T23:15:29.030Z,18.50
2022-08-05T23:18:00.609Z,18.61
2022-08-05T23:20:30.316Z,18.38
2022-08-05T23:23:00.235Z,18.54
2022-08-05T23:25:50.962Z,18.50
2022-08-05T23:28:20.628Z,18.26
2022-08-05T23:30:53.598Z,18.05
2022-08-05T23:34:02.662Z,18.07
2022-08-05T23:36:13.502Z,17.87
2022-08-05T23:38:44.337Z,17.87
2022-08-05T23:41:13.154Z,17.78
2022-08-05T23:44:04.754Z,17.70
2022-08-05T23:46:30.595Z,17.60
2022-08-05T23:49:01.956Z,17.61
2022-08-05T23:52:01.603Z,17.46
2022-08-05T23:54:38.384Z,17.32
2022-08-05T23:57:07.953Z,17.16
